Time;durP1;ratioP1;P1;durP2;ratioP2;P2;SDS_P1;SDS_P2;PMS_P1;PMS_P2;Temp;Humidity;BMP_temperature;BMP_pressure;BME280_temperature;BME280_humidity;BME280_pressure;Samples;Min_cycle;Max_cycle;Signal;HPM_P1;HPM_P2
2021/11/24 00:00:24;;;;;;;13.40;10.63;;;22.80;33.50;;;;;;5065051;28;20048;-64
2021/11/24 00:02:51;;;;;;;17.40;12.35;;;22.80;33.40;;;;;;5049827;28;20098;-64
2021/11/24 00:05:19;;;;;;;15.82;11.70;;;22.80;33.40;;;;;;5042336;28;20056;-64
2021/11/24 00:07:47;;;;;;;18.40;13.50;;;22.80;33.40;;;;;;5044574;28;20900;-64
2021/11/24 00:10:16;;;;;;;14.55;11.02;;;22.80;33.40;;;;;;5045659;28;20506;-65
2021/11/24 00:12:43;;;;;;;14.50;10.82;;;22.80;33.40;;;;;;5046760;28;20056;-65
2021/11/24 00:15:11;;;;;;;16.80;11.55;;;22.80;33.40;;;;;;5064855;28;20186;-65
2021/11/24 00:17:39;;;;;;;15.90;11.82;;;22.80;33.40;;;;;;5047980;28;20095;-65
2021/11/24 00:20:07;;;;;;;15.57;11.30;;;22.80;33.40;;;;;;5042796;28;20131;-64
2021/11/24 00:22:36;;;;;;;13.65;10.63;;;22.80;33.40;;;;;;5036925;28;20052;-65
2021/11/24 00:25:04;;;;;;;15.07;11.00;;;22.80;33.40;;;;;;5026717;28;20569;-65
2021/11/24 00:27:31;;;;;;;16.55;11.90;;;22.80;33.40;;;;;;5044455;28;20048;-65
2021/11/24 00:29:58;;;;;;;15.27;11.23;;;22.80;33.40;;;;;;5043783;28;20117;-65
2021/11/24 00:32:26;;;;;;;14.38;11.25;;;22.80;33.40;;;;;;5042766;28;20053;-65
2021/11/24 00:34:53;;;;;;;14.18;10.93;;;22.80;33.40;;;;;;5044801;28;21118;-65
2021/11/24 00:37:20;;;;;;;14.85;10.98;;;22.70;33.40;;;;;;5043941;28;20083;-65
2021/11/24 00:39:47;;;;;;;13.38;11.20;;;22.70;33.40;;;;;;5042845;28;20102;-65
2021/11/24 00:42:15;;;;;;;14.93;11.48;;;22.70;33.40;;;;;;5040686;28;20048;-65
2021/11/24 00:44:42;;;;;;;13.07;10.23;;;22.70;33.40;;;;;;5043740;28;20524;-65
2021/11/24 00:47:10;;;;;;;14.60;10.35;;;22.70;33.40;;;;;;5042839;28;20048;-64
2021/11/24 00:49:39;;;;;;;14.38;10.93;;;22.70;33.40;;;;;;5044936;28;20462;-64
2021/11/24 00:52:08;;;;;;;13.38;10.25;;;22.70;33.40;;;;;;5042255;28;20497;-65
2021/11/24 00:54:36;;;;;;;16.10;11.18;;;22.70;33.40;;;;;;5064048;28;20135;-67
2021/11/24 00:57:04;;;;;;;13.85;10.52;;;22.70;33.40;;;;;;5046256;28;20086;-65
2021/11/24 00:59:31;;;;;;;13.57;10.07;;;22.70;33.40;;;;;;5064049;28;20088;-65
2021/11/24 01:01:59;;;;;;;12.25;9.45;;;22.70;33.40;;;;;;5057972;28;20056;-67
2021/11/24 01:04:26;;;;;;;14.23;10.48;;;22.70;33.40;;;;;;5042385;28;20060;-66
2021/11/24 01:06:53;;;;;;;13.07;9.75;;;22.70;33.40;;;;;;5044015;28;20128;-66
2021/11/24 01:09:21;;;;;;;12.90;9.65;;;22.70;33.40;;;;;;5043532;28;20052;-66
2021/11/24 01:11:48;;;;;;;14.45;10.45;;;22.70;33.40;;;;;;5038313;28;20091;-66
2021/11/24 01:14:15;;;;;;;12.88;9.65;;;22.70;33.40;;;;;;5041306;28;20184;-66
2021/11/24 01:16:44;;;;;;;13.10;10.15;;;22.70;33.40;;;;;;5044024;28;20444;-66
2021/11/24 01:19:11;;;;;;;14.10;10.10;;;22.70;33.40;;;;;;5047441;28;20490;-66
2021/11/24 01:21:39;;;;;;;11.70;9.18;;;22.70;34.00;;;;;;5043245;28;20456;-66
2021/11/24 01:24:06;;;;;;;13.15;9.77;;;22.70;33.40;;;;;;5064790;28;20146;-65
2021/11/24 01:26:33;;;;;;;11.48;9.18;;;22.70;33.40;;;;;;5067532;28;20083;-65
2021/11/24 01:29:01;;;;;;;12.70;9.80;;;22.70;33.40;;;;;;5068350;28;20054;-65
2021/11/24 01:31:29;;;;;;;13.77;9.80;;;22.60;33.40;;;;;;5061498;28;20154;-65
2021/11/24 01:33:57;;;;;;;13.43;9.60;;;22.60;33.40;;;;;;5065435;28;20416;-66
2021/11/24 01:36:27;;;;;;;12.93;9.63;;;22.60;33.40;;;;;;5067611;28;20087;-66
2021/11/24 01:38:54;;;;;;;14.57;9.90;;;22.60;33.40;;;;;;5067287;28;20408;-66
2021/11/24 01:41:21;;;;;;;13.95;9.32;;;22.60;33.40;;;;;;5058675;28;20129;-66
2021/11/24 01:43:48;;;;;;;12.07;9.25;;;22.60;33.40;;;;;;5048272;28;20060;-66
2021/11/24 01:46:15;;;;;;;11.55;8.65;;;22.60;33.50;;;;;;5046761;28;20516;-65
2021/11/24 01:48:42;;;;;;;12.20;9.25;;;22.60;33.50;;;;;;5047435;28;20413;-66
2021/11/24 01:51:10;;;;;;;12.88;9.70;;;22.60;33.50;;;;;;5043449;28;20524;-66
2021/11/24 01:53:37;;;;;;;11.18;8.75;;;22.60;33.50;;;;;;5048758;28;20056;-65
2021/11/24 01:56:04;;;;;;;12.85;9.27;;;22.60;33.50;;;;;;5045351;28;20056;-66
2021/11/24 01:58:33;;;;;;;9.95;8.50;;;22.60;33.40;;;;;;5046597;28;20135;-65
2021/11/24 02:01:01;;;;;;;12.90;9.80;;;22.60;33.40;;;;;;5044609;28;20059;-65
2021/11/24 02:03:28;;;;;;;12.07;8.75;;;22.60;33.40;;;;;;5051666;28;20068;-64
2021/11/24 02:05:56;;;;;;;12.07;8.77;;;22.60;33.40;;;;;;5047169;28;20052;-65
2021/11/24 02:08:23;;;;;;;10.68;8.25;;;22.60;33.40;;;;;;5046752;28;20048;-65
2021/11/24 02:10:51;;;;;;;11.35;8.63;;;22.60;33.40;;;;;;5043609;28;20148;-65
2021/11/24 02:13:18;;;;;;;11.20;8.23;;;22.60;33.40;;;;;;5052713;28;20066;-64
2021/11/24 02:15:45;;;;;;;14.02;8.60;;;22.60;33.40;;;;;;5065884;28;20043;-64
2021/11/24 02:18:12;;;;;;;11.70;8.40;;;22.60;33.40;;;;;;5044957;28;20501;-64
2021/11/24 02:20:45;;;;;;;11.32;8.23;;;22.60;33.40;;;;;;5044101;28;20140;-64
2021/11/24 02:23:14;;;;;;;11.68;8.52;;;22.60;33.40;;;;;;5049928;28;20083;-64
2021/11/24 02:25:43;;;;;;;10.43;7.93;;;22.60;33.40;;;;;;5066608;28;20060;-64
2021/11/24 02:28:10;;;;;;;11.15;8.00;;;22.50;33.30;;;;;;5066266;28;20125;-65
2021/11/24 02:30:38;;;;;;;9.77;7.93;;;22.60;33.40;;;;;;5066507;28;20083;-64
2021/11/24 02:33:05;;;;;;;11.38;7.93;;;22.60;33.40;;;;;;5051677;28;20080;-64
2021/11/24 02:35:33;;;;;;;12.23;8.75;;;22.50;33.40;;;;;;5046181;28;20139;-64
2021/11/24 02:38:03;;;;;;;10.13;7.82;;;22.50;33.30;;;;;;5046509;28;20082;-67
2021/11/24 02:40:32;;;;;;;12.20;8.65;;;22.50;33.30;;;;;;5046798;28;20148;-67
2021/11/24 02:42:59;;;;;;;10.40;8.18;;;22.60;33.40;;;;;;5043674;28;20094;-67
2021/11/24 02:45:26;;;;;;;10.50;8.10;;;22.50;33.40;;;;;;5046188;28;20079;-66
2021/11/24 02:47:54;;;;;;;9.90;7.53;;;22.60;33.40;;;;;;5046105;28;20121;-67
2021/11/24 02:50:21;;;;;;;10.98;8.05;;;22.50;33.40;;;;;;5045818;28;20128;-67
2021/11/24 02:52:50;;;;;;;10.27;7.47;;;22.50;33.40;;;;;;5044684;28;20058;-66
2021/11/24 02:55:17;;;;;;;11.57;8.88;;;22.50;33.40;;;;;;5046225;28;20135;-66
2021/11/24 02:57:49;;;;;;;9.80;7.30;;;22.50;33.40;;;;;;5045814;28;20056;-66
2021/11/24 03:00:28;;;;;;;10.25;8.38;;;22.50;33.40;;;;;;5045790;28;20543;-66
2021/11/24 03:02:56;;;;;;;11.85;8.10;;;22.50;33.90;;;;;;5043659;28;20052;-67
2021/11/24 03:05:26;;;;;;;11.25;8.13;;;22.50;33.40;;;;;;5045466;28;20056;-64
2021/11/24 03:07:58;;;;;;;12.48;7.75;;;22.40;33.40;;;;;;5045734;28;20048;-64
2021/11/24 03:10:25;;;;;;;11.55;7.90;;;22.40;33.40;;;;;;5051483;28;20053;-65
2021/11/24 03:12:53;;;;;;;9.05;7.47;;;22.40;33.40;;;;;;5035608;28;20489;-64
2021/11/24 03:15:21;;;;;;;11.00;7.25;;;22.40;33.40;;;;;;5053671;28;20048;-64
2021/11/24 03:17:48;;;;;;;9.07;7.35;;;22.40;33.40;;;;;;5045022;28;20109;-64
2021/11/24 03:20:15;;;;;;;8.27;6.47;;;22.40;33.40;;;;;;5044987;28;20086;-67
2021/11/24 03:22:43;;;;;;;10.73;7.88;;;22.40;33.30;;;;;;5044296;28;20051;-64
2021/11/24 03:25:11;;;;;;;10.23;7.68;;;22.40;33.30;;;;;;5065558;28;20091;-64
2021/11/24 03:27:41;;;;;;;12.15;7.57;;;22.40;33.40;;;;;;5065058;28;20051;-64
2021/11/24 03:30:13;;;;;;;9.65;7.25;;;22.40;33.40;;;;;;5063899;28;20055;-64
2021/11/24 03:32:40;;;;;;;8.73;6.53;;;22.40;33.40;;;;;;5043176;28;20632;-65
2021/11/24 03:35:13;;;;;;;9.68;7.30;;;22.40;33.40;;;;;;5045507;28;20450;-64
2021/11/24 03:37:40;;;;;;;10.07;7.15;;;22.40;33.50;;;;;;5044976;28;21005;-64
2021/11/24 03:40:09;;;;;;;8.23;6.85;;;22.40;33.40;;;;;;5042450;28;20048;-65
2021/11/24 03:42:41;;;;;;;9.27;6.55;;;22.40;33.40;;;;;;5049335;28;20161;-64
2021/11/24 03:45:09;;;;;;;9.13;6.75;;;22.40;33.50;;;;;;5044758;28;20140;-64
2021/11/24 03:47:37;;;;;;;10.05;7.32;;;22.40;33.40;;;;;;5045953;28;20463;-64
2021/11/24 03:50:06;;;;;;;8.32;6.68;;;22.40;33.40;;;;;;5044936;28;20573;-64
2021/11/24 03:52:34;;;;;;;8.65;6.43;;;22.40;33.40;;;;;;5038386;28;20080;-64
2021/11/24 03:55:02;;;;;;;10.07;7.10;;;22.40;33.40;;;;;;5044528;28;20596;-64
2021/11/24 03:57:29;;;;;;;9.18;7.03;;;22.40;33.40;;;;;;5044729;28;20545;-64
2021/11/24 03:59:57;;;;;;;7.60;6.00;;;22.40;33.40;;;;;;5044659;28;20147;-65
2021/11/24 04:02:24;;;;;;;7.43;5.93;;;22.40;33.40;;;;;;5047804;28;20101;-64
2021/11/24 04:04:52;;;;;;;7.07;5.95;;;22.40;33.40;;;;;;5043778;28;20142;-64
2021/11/24 04:07:19;;;;;;;6.68;6.00;;;22.40;33.40;;;;;;5044850;28;20488;-64
2021/11/24 04:09:47;;;;;;;10.18;6.80;;;22.40;33.40;;;;;;5044665;28;20164;-64
2021/11/24 04:12:17;;;;;;;9.20;6.47;;;22.40;33.40;;;;;;5043299;28;20052;-64
2021/11/24 04:14:44;;;;;;;7.95;6.07;;;22.40;33.30;;;;;;5023842;28;20508;-64
2021/11/24 04:17:13;;;;;;;8.07;6.03;;;22.40;33.30;;;;;;5037082;28;20059;-64
2021/11/24 04:19:40;;;;;;;9.23;6.25;;;22.40;33.40;;;;;;5034334;28;20153;-64
2021/11/24 04:22:08;;;;;;;8.98;6.63;;;22.40;33.30;;;;;;5034915;28;20703;-64
2021/11/24 04:24:36;;;;;;;7.50;6.10;;;22.40;33.30;;;;;;5064188;28;20106;-64
2021/11/24 04:27:03;;;;;;;6.43;5.50;;;22.30;33.30;;;;;;5064136;28;20083;-64
2021/11/24 04:29:30;;;;;;;7.40;5.68;;;22.40;33.40;;;;;;5064047;28;20135;-64
2021/11/24 04:31:58;;;;;;;7.55;5.55;;;22.30;33.30;;;;;;5054026;28;20084;-64
2021/11/24 04:34:25;;;;;;;7.53;5.78;;;22.30;33.30;;;;;;5042579;28;20052;-64
2021/11/24 04:36:53;;;;;;;8.18;6.13;;;22.30;33.30;;;;;;5043915;28;20140;-64
2021/11/24 04:39:20;;;;;;;7.05;6.07;;;22.30;33.30;;;;;;5043966;28;20140;-64
2021/11/24 04:41:48;;;;;;;7.80;5.85;;;22.30;33.30;;;;;;5042330;28;20059;-64
2021/11/24 04:44:15;;;;;;;6.95;5.45;;;22.30;33.30;;;;;;5044234;28;20218;-65
2021/11/24 04:46:42;;;;;;;8.30;5.97;;;22.30;33.30;;;;;;5044766;28;20498;-64
2021/11/24 04:49:09;;;;;;;7.03;6.00;;;22.30;33.40;;;;;;5044327;28;20559;-64
2021/11/24 04:51:37;;;;;;;7.80;5.88;;;22.30;33.30;;;;;;5037661;28;20048;-64
2021/11/24 04:54:04;;;;;;;8.43;6.15;;;22.30;33.30;;;;;;5056566;28;20492;-64
2021/11/24 04:56:32;;;;;;;6.55;5.55;;;22.30;33.30;;;;;;5063754;28;20058;-64
2021/11/24 04:59:01;;;;;;;6.18;5.00;;;22.30;33.30;;;;;;5063756;28;20133;-64
2021/11/24 05:01:28;;;;;;;7.30;5.35;;;22.30;33.30;;;;;;5055165;28;20056;-65
2021/11/24 05:03:56;;;;;;;7.03;5.47;;;22.30;33.30;;;;;;5061557;28;20083;-64
2021/11/24 05:06:23;;;;;;;7.85;5.85;;;22.30;33.30;;;;;;5063580;28;20102;-65
2021/11/24 05:08:51;;;;;;;7.63;5.47;;;22.30;33.30;;;;;;5063719;28;20087;-64
2021/11/24 05:11:19;;;;;;;8.07;5.82;;;22.20;33.30;;;;;;5055390;28;20166;-65
2021/11/24 05:14:00;;;;;;;6.47;5.18;;;22.30;33.40;;;;;;5059747;28;20079;-64
2021/11/24 05:16:31;;;;;;;6.68;4.93;;;22.20;33.30;;;;;;5064142;28;20056;-64
2021/11/24 05:18:59;;;;;;;5.90;5.25;;;22.30;33.40;;;;;;5062430;28;20105;-64
2021/11/24 05:21:37;;;;;;;6.40;5.43;;;22.30;33.40;;;;;;5054077;28;20118;-64
2021/11/24 05:24:05;;;;;;;6.50;4.90;;;22.30;33.40;;;;;;5041792;28;20711;-64
2021/11/24 05:26:34;;;;;;;5.32;4.68;;;22.20;33.30;;;;;;5042580;28;20509;-64
2021/11/24 05:29:02;;;;;;;6.55;4.90;;;22.20;33.30;;;;;;5043570;28;20106;-64
2021/11/24 05:31:29;;;;;;;6.28;4.97;;;22.20;33.30;;;;;;5042465;28;20056;-65
2021/11/24 05:33:57;;;;;;;7.35;5.03;;;22.30;33.40;;;;;;5041468;28;20520;-64
2021/11/24 05:36:24;;;;;;;6.47;5.00;;;22.30;33.40;;;;;;5041915;28;20231;-65
2021/11/24 05:38:51;;;;;;;6.38;4.72;;;22.30;33.40;;;;;;5043468;28;20091;-66
2021/11/24 05:41:18;;;;;;;5.88;4.53;;;22.30;33.40;;;;;;5039969;28;20494;-65
2021/11/24 05:43:45;;;;;;;6.97;5.63;;;22.20;33.30;;;;;;5039008;28;20048;-64
2021/11/24 05:46:17;;;;;;;6.22;4.65;;;22.30;33.30;;;;;;5042604;28;20045;-64
2021/11/24 05:48:46;;;;;;;5.32;4.82;;;22.20;33.20;;;;;;5043397;28;20048;-64
2021/11/24 05:51:14;;;;;;;5.60;4.57;;;22.20;33.20;;;;;;5040346;28;20528;-65
2021/11/24 05:53:42;;;;;;;6.10;4.60;;;22.30;33.20;;;;;;5044808;28;20044;-64
2021/11/24 05:56:09;;;;;;;6.20;4.65;;;22.30;33.20;;;;;;5029173;28;20044;-64
2021/11/24 05:58:36;;;;;;;5.32;4.72;;;22.30;33.80;;;;;;5033718;28;20126;-65
2021/11/24 06:01:03;;;;;;;5.70;4.95;;;22.30;33.20;;;;;;5031101;28;20076;-65
2021/11/24 06:03:31;;;;;;;5.07;4.55;;;22.20;33.20;;;;;;5032937;28;20040;-65
2021/11/24 06:05:58;;;;;;;5.68;4.72;;;22.30;33.10;;;;;;5039419;28;20083;-63
2021/11/24 06:08:25;;;;;;;5.70;4.38;;;22.30;33.00;;;;;;5034420;28;20128;-64
2021/11/24 06:10:53;;;;;;;6.50;5.22;;;22.20;33.00;;;;;;5025080;28;20091;-64
2021/11/24 06:13:20;;;;;;;6.45;5.25;;;22.20;32.90;;;;;;5031336;28;20509;-64
2021/11/24 06:15:47;;;;;;;6.65;5.03;;;22.20;32.80;;;;;;5043309;28;20103;-64
2021/11/24 06:18:14;;;;;;;5.00;4.50;;;22.20;32.70;;;;;;5041875;28;20490;-65
2021/11/24 06:20:42;;;;;;;6.28;4.90;;;22.20;32.60;;;;;;5034449;28;20091;-64
2021/11/24 06:23:10;;;;;;;5.43;4.53;;;22.20;32.50;;;;;;5036141;28;20143;-64
2021/11/24 06:25:37;;;;;;;6.10;4.75;;;22.20;32.30;;;;;;5035122;28;20575;-66
2021/11/24 06:28:05;;;;;;;6.93;5.22;;;22.20;32.10;;;;;;5030212;28;20044;-64
2021/11/24 06:30:33;;;;;;;6.60;5.00;;;22.20;32.00;;;;;;5034564;28;20079;-65
2021/11/24 06:33:01;;;;;;;5.32;4.82;;;22.30;31.90;;;;;;5036173;28;20049;-64
2021/11/24 06:35:28;;;;;;;5.80;4.80;;;22.30;32.00;;;;;;5032766;28;20459;-65
2021/11/24 06:37:55;;;;;;;4.93;4.50;;;22.40;32.60;;;;;;5025106;28;20413;-65
2021/11/24 06:40:23;;;;;;;6.10;5.13;;;22.40;32.40;;;;;;5023610;28;20139;-64
2021/11/24 06:42:50;;;;;;;6.18;4.82;;;22.50;32.20;;;;;;5015083;28;20049;-64
2021/11/24 06:45:20;;;;;;;7.03;4.88;;;22.50;32.20;;;;;;5020782;28;20501;-63
2021/11/24 06:47:47;;;;;;;5.75;4.70;;;22.60;32.40;;;;;;5025848;28;20143;-64
2021/11/24 06:50:14;;;;;;;4.47;4.07;;;22.70;32.40;;;;;;5024235;28;20087;-64
2021/11/24 06:52:42;;;;;;;4.90;4.28;;;22.70;32.20;;;;;;5017720;28;20081;-63
2021/11/24 06:55:10;;;;;;;5.40;4.60;;;22.80;32.00;;;;;;5021578;28;20084;-63
2021/11/24 06:57:38;;;;;;;5.40;4.78;;;22.90;31.80;;;;;;5021675;28;20110;-63
2021/11/24 07:00:06;;;;;;;6.10;4.60;;;23.00;31.60;;;;;;5025761;28;20049;-65
2021/11/24 07:02:34;;;;;;;7.75;5.78;;;23.00;31.40;;;;;;5016209;28;20087;-65
2021/11/24 07:05:01;;;;;;;7.15;6.20;;;23.00;31.00;;;;;;5022083;28;20067;-66
2021/11/24 07:07:28;;;;;;;9.02;6.88;;;23.10;30.90;;;;;;5023360;28;20037;-63
2021/11/24 07:09:55;;;;;;;7.32;5.68;;;23.20;31.40;;;;;;5028394;28;20080;-63
2021/11/24 07:12:25;;;;;;;8.40;6.35;;;23.30;31.40;;;;;;5016917;28;20049;-65
2021/11/24 07:14:54;;;;;;;8.80;6.55;;;23.30;31.10;;;;;;5024634;28;20063;-66
2021/11/24 07:17:21;;;;;;;9.25;6.70;;;23.40;31.60;;;;;;5026064;28;20413;-64
2021/11/24 07:19:48;;;;;;;9.90;7.95;;;23.50;31.00;;;;;;5024819;28;20545;-64
2021/11/24 07:22:15;;;;;;;10.18;7.57;;;23.50;31.10;;;;;;5013746;28;20044;-63
2021/11/24 07:24:43;;;;;;;11.38;7.05;;;23.60;31.20;;;;;;5023476;28;20561;-64
2021/11/24 07:27:10;;;;;;;9.82;7.35;;;23.70;31.20;;;;;;5025161;28;20052;-64
2021/11/24 07:29:37;;;;;;;12.82;7.75;;;23.70;31.20;;;;;;5027535;28;20636;-64
2021/11/24 07:32:05;;;;;;;9.80;8.00;;;23.80;31.10;;;;;;5015499;28;20084;-67
2021/11/24 07:34:33;;;;;;;10.77;8.27;;;23.90;31.00;;;;;;5024077;28;20055;-64
2021/11/24 07:37:00;;;;;;;13.73;9.52;;;23.90;30.90;;;;;;5019254;28;20049;-64
2021/11/24 07:39:27;;;;;;;12.15;9.07;;;24.00;31.00;;;;;;5031094;28;20379;-64
2021/11/24 07:41:54;;;;;;;11.45;8.65;;;24.10;30.90;;;;;;5019221;28;20083;-63
2021/11/24 07:44:21;;;;;;;11.27;8.95;;;24.10;30.90;;;;;;5025386;28;20095;-64
2021/11/24 07:46:48;;;;;;;13.40;9.88;;;24.20;30.80;;;;;;5026858;28;20110;-63
2021/11/24 07:49:15;;;;;;;13.30;9.88;;;24.20;30.80;;;;;;5026123;28;20102;-66
2021/11/24 07:51:43;;;;;;;16.10;10.55;;;24.30;30.70;;;;;;5021228;28;20403;-68
2021/11/24 07:54:13;;;;;;;12.63;9.65;;;24.30;30.70;;;;;;5024069;28;20048;-63
2021/11/24 07:56:40;;;;;;;13.93;10.05;;;24.40;30.50;;;;;;5021575;28;20056;-65
2021/11/24 07:59:08;;;;;;;12.93;10.15;;;24.50;30.40;;;;;;5028334;28;20041;-64
2021/11/24 08:01:35;;;;;;;12.55;10.10;;;24.50;30.40;;;;;;5019911;28;20056;-65
2021/11/24 08:04:03;;;;;;;13.85;9.95;;;24.50;30.40;;;;;;5017764;28;20052;-65
2021/11/24 08:06:30;;;;;;;14.60;10.15;;;24.50;30.30;;;;;;5020817;28;21315;-67
2021/11/24 08:08:57;;;;;;;14.13;10.05;;;24.50;30.30;;;;;;5026076;28;20056;-65
2021/11/24 08:11:25;;;;;;;13.70;10.43;;;24.50;30.40;;;;;;5024708;28;20057;-63
2021/11/24 08:13:52;;;;;;;15.35;10.23;;;24.50;30.50;;;;;;5021382;28;20045;-65
2021/11/24 08:16:19;;;;;;;14.40;11.00;;;24.50;30.60;;;;;;5025868;28;20106;-66
2021/11/24 08:18:47;;;;;;;13.98;10.05;;;24.50;30.60;;;;;;5030812;28;20118;-66
2021/11/24 08:21:14;;;;;;;14.10;10.52;;;24.50;30.70;;;;;;5022828;28;20142;-66
2021/11/24 08:23:41;;;;;;;15.73;11.57;;;24.50;30.70;;;;;;5022673;28;21005;-65
2021/11/24 08:26:09;;;;;;;16.98;11.30;;;24.40;30.70;;;;;;5024520;28;20080;-64
2021/11/24 08:28:36;;;;;;;15.05;10.80;;;24.40;30.80;;;;;;5027523;28;20540;-64
2021/11/24 08:31:03;;;;;;;13.05;10.52;;;24.40;30.90;;;;;;5018924;28;20064;-66
2021/11/24 08:33:31;;;;;;;14.77;11.45;;;24.40;31.00;;;;;;5019812;28;20101;-65
2021/11/24 08:35:58;;;;;;;17.27;11.63;;;24.30;31.10;;;;;;5027505;28;20140;-66
2021/11/24 08:38:25;;;;;;;12.93;10.57;;;24.30;31.40;;;;;;5033394;28;20106;-64
2021/11/24 08:40:53;;;;;;;14.48;11.05;;;24.40;31.60;;;;;;5026092;28;20076;-65
2021/11/24 08:43:21;;;;;;;15.18;11.25;;;24.40;31.80;;;;;;5019449;28;20418;-63
2021/11/24 08:45:48;;;;;;;14.18;10.73;;;24.40;31.80;;;;;;5030710;28;20498;-65
2021/11/24 08:48:15;;;;;;;15.60;10.50;;;24.40;31.90;;;;;;5028072;28;20453;-65
2021/11/24 08:50:42;;;;;;;13.00;10.35;;;24.40;31.80;;;;;;5024284;28;20048;-64
2021/11/24 08:53:10;;;;;;;14.18;10.63;;;24.40;31.80;;;;;;5021872;28;20045;-70
2021/11/24 08:55:38;;;;;;;15.10;10.38;;;24.40;31.80;;;;;;5023704;28;20114;-65
2021/11/24 08:58:05;;;;;;;13.88;9.57;;;24.40;31.90;;;;;;5028427;28;20546;-67
2021/11/24 09:00:32;;;;;;;13.13;9.85;;;24.40;31.90;;;;;;5023910;28;20123;-65
2021/11/24 09:03:00;;;;;;;14.95;10.30;;;24.50;32.10;;;;;;5011419;28;20049;-65
2021/11/24 09:05:27;;;;;;;13.85;10.25;;;24.50;32.00;;;;;;5025728;28;20052;-65
2021/11/24 09:07:55;;;;;;;14.32;10.07;;;24.60;31.80;;;;;;5034972;28;20076;-65
2021/11/24 09:10:22;;;;;;;13.85;10.90;;;24.60;31.80;;;;;;5025476;28;20053;-65
2021/11/24 09:12:49;;;;;;;14.75;11.50;;;24.60;32.00;;;;;;5014910;28;20123;-69
2021/11/24 09:15:17;;;;;;;13.70;10.27;;;24.60;32.10;;;;;;5011295;28;20044;-64
2021/11/24 09:18:04;;;;;;;12.73;10.02;;;24.60;32.10;;;;;;5027370;28;20084;-65
2021/11/24 09:20:34;;;;;;;13.80;10.65;;;24.70;32.20;;;;;;5028941;28;20490;-63
2021/11/24 09:23:03;;;;;;;14.20;10.77;;;24.70;32.20;;;;;;5023240;28;20060;-65
2021/11/24 09:25:38;;;;;;;12.95;10.30;;;24.70;32.30;;;;;;5034834;28;20049;-63
2021/11/24 09:28:10;;;;;;;14.75;11.32;;;24.70;32.20;;;;;;5027019;28;20053;-65
2021/11/24 09:30:40;;;;;;;13.23;10.63;;;24.70;32.10;;;;;;5026413;28;20045;-65
2021/11/24 09:33:09;;;;;;;15.30;11.25;;;24.70;32.00;;;;;;5018077;28;20052;-65
2021/11/24 09:35:36;;;;;;;17.05;10.88;;;24.70;32.00;;;;;;5025365;28;20122;-65
2021/11/24 09:38:05;;;;;;;15.77;11.00;;;24.70;32.10;;;;;;5037193;28;20048;-65
2021/11/24 09:40:34;;;;;;;10.73;9.38;;;24.80;32.10;;;;;;5030748;28;20053;-64
2021/11/24 09:43:05;;;;;;;13.00;10.10;;;24.80;32.00;;;;;;5026699;28;20052;-63
2021/11/24 09:45:35;;;;;;;12.85;10.27;;;24.80;31.90;;;;;;5032131;28;20539;-65
2021/11/24 09:48:03;;;;;;;13.98;10.48;;;24.80;31.90;;;;;;5029126;28;20099;-67
2021/11/24 09:50:35;;;;;;;10.57;8.80;;;24.80;31.90;;;;;;5030724;28;20406;-65
2021/11/24 09:53:04;;;;;;;12.57;9.40;;;24.80;31.90;;;;;;5021604;28;20107;-67
2021/11/24 09:55:34;;;;;;;12.55;9.63;;;24.80;31.90;;;;;;5028978;28;20048;-67
2021/11/24 09:58:01;;;;;;;;;;;24.80;31.90;;;;;;5029440;28;20111;-68
2021/11/24 10:00:29;;;;;;;9.60;8.32;;;24.80;31.90;;;;;;5032796;28;19968;-66
2021/11/24 10:02:59;;;;;;;11.07;9.07;;;24.80;31.90;;;;;;5021645;28;20083;-67
2021/11/24 10:05:28;;;;;;;11.07;9.00;;;24.80;31.80;;;;;;5030748;28;20106;-65
2021/11/24 10:07:56;;;;;;;13.30;9.20;;;24.80;31.80;;;;;;5029282;28;20081;-62
2021/11/24 10:10:24;;;;;;;11.48;8.65;;;24.80;31.80;;;;;;5030670;28;20535;-65
2021/11/24 10:12:52;;;;;;;10.95;8.63;;;24.90;31.70;;;;;;5023855;28;20060;-66
2021/11/24 10:15:41;;;;;;;9.90;7.82;;;24.90;31.70;;;;;;5034982;28;20437;-66
2021/11/24 10:18:24;;;;;;;10.93;8.18;;;24.90;31.70;;;;;;5029069;28;20048;-68
2021/11/24 10:21:02;;;;;;;10.07;8.07;;;24.90;31.60;;;;;;5029961;28;20187;-68
2021/11/24 10:23:34;;;;;;;9.48;8.20;;;25.00;31.60;;;;;;5033721;28;20067;-63
2021/11/24 10:26:27;;;;;;;9.32;7.50;;;25.00;31.50;;;;;;5036269;28;20558;-64
2021/11/24 10:29:16;;;;;;;10.40;8.07;;;25.00;31.50;;;;;;5030767;28;20511;-62
2021/11/24 10:31:46;;;;;;;9.45;7.38;;;25.00;31.40;;;;;;5024506;28;20041;-65
2021/11/24 10:34:26;;;;;;;8.38;6.80;;;25.00;31.40;;;;;;5029201;28;20460;-64
2021/11/24 10:37:12;;;;;;;9.40;6.88;;;25.10;31.50;;;;;;5027022;28;20053;-66
2021/11/24 10:39:48;;;;;;;8.18;6.60;;;25.10;31.50;;;;;;5017028;28;20049;-64
2021/11/24 10:42:25;;;;;;;9.45;7.95;;;25.00;31.40;;;;;;5028246;28;20053;-67
2021/11/24 10:44:55;;;;;;;8.43;7.20;;;25.10;31.40;;;;;;5034317;28;20131;-66
2021/11/24 10:47:24;;;;;;;11.05;6.88;;;25.10;31.30;;;;;;5030235;28;20573;-66
2021/11/24 10:49:55;;;;;;;7.60;6.68;;;25.10;31.30;;;;;;5034724;28;20532;-64
2021/11/24 10:52:36;;;;;;;8.32;6.88;;;25.10;31.30;;;;;;5022779;28;20081;-62
2021/11/24 10:55:11;;;;;;;12.75;7.10;;;25.10;31.30;;;;;;5031160;28;20409;-63
2021/11/24 10:57:41;;;;;;;6.97;6.25;;;25.10;31.30;;;;;;5031588;28;20100;-62
2021/11/24 11:00:21;;;;;;;15.43;6.43;;;25.10;31.20;;;;;;5029694;28;20134;-64
2021/11/24 11:02:50;;;;;;;7.07;6.18;;;25.10;31.20;;;;;;5020747;28;20098;-64
2021/11/24 11:05:21;;;;;;;7.05;6.35;;;25.20;31.20;;;;;;5028338;28;20053;-64
2021/11/24 11:07:58;;;;;;;7.40;5.90;;;25.10;31.00;;;;;;5033211;28;20418;-63
2021/11/24 11:10:29;;;;;;;7.22;6.50;;;25.10;31.00;;;;;;5029398;28;20084;-62
2021/11/24 11:12:59;;;;;;;5.95;5.35;;;25.10;30.90;;;;;;5021519;28;20056;-62
2021/11/24 11:15:33;;;;;;;7.20;5.88;;;25.20;30.70;;;;;;5022978;28;20077;-62
2021/11/24 11:18:06;;;;;;;8.98;5.63;;;25.20;30.40;;;;;;5025449;28;20552;-65
2021/11/24 11:20:41;;;;;;;7.72;5.65;;;25.20;30.10;;;;;;5030980;28;20048;-65
2021/11/24 11:23:32;;;;;;;9.00;5.53;;;25.20;30.20;;;;;;5019026;28;20083;-65
2021/11/24 11:26:02;;;;;;;7.03;5.90;;;25.20;30.40;;;;;;5028734;28;20083;-64
2021/11/24 11:28:33;;;;;;;6.03;5.03;;;25.20;30.50;;;;;;5031602;28;20511;-63
2021/11/24 11:31:07;;;;;;;6.30;4.65;;;25.20;30.50;;;;;;5025919;28;20186;-65
2021/11/24 11:33:40;;;;;;;5.32;4.65;;;25.20;30.40;;;;;;5026272;28;20509;-64
2021/11/24 11:36:09;;;;;;;4.85;4.43;;;25.20;30.40;;;;;;5027877;28;20125;-65
2021/11/24 11:38:40;;;;;;;5.72;4.45;;;25.20;30.30;;;;;;5030043;28;20049;-65
2021/11/24 11:41:08;;;;;;;5.55;4.68;;;25.30;30.40;;;;;;5022488;28;20044;-65
2021/11/24 11:43:56;;;;;;;4.97;4.47;;;25.30;30.30;;;;;;5021765;28;20572;-64
2021/11/24 11:46:48;;;;;;;6.40;5.00;;;25.30;30.20;;;;;;5027243;28;20055;-62
2021/11/24 11:49:18;;;;;;;9.68;4.78;;;25.30;30.20;;;;;;5030586;28;20419;-61
2021/11/24 11:51:47;;;;;;;;;;;25.30;30.20;;;;;;5022405;28;20053;-60
2021/11/24 11:54:24;;;;;;;6.97;4.50;;;25.30;30.30;;;;;;5025788;28;19925;-63
2021/11/24 11:56:51;;;;;;;8.63;4.45;;;25.30;30.30;;;;;;5029915;28;20052;-61
2021/11/24 11:59:25;;;;;;;9.43;3.90;;;25.30;30.40;;;;;;5026582;28;20048;-63
2021/11/24 12:01:57;;;;;;;4.57;4.15;;;25.30;30.50;;;;;;5022727;28;20420;-63
2021/11/24 12:04:28;;;;;;;5.13;4.30;;;25.30;30.30;;;;;;5025917;28;20131;-63
2021/11/24 12:07:05;;;;;;;4.78;4.28;;;25.30;30.10;;;;;;5024617;28;20214;-64
2021/11/24 12:09:47;;;;;;;4.65;3.67;;;25.30;29.90;;;;;;5030547;28;20083;-64
2021/11/24 12:12:31;;;;;;;5.22;4.45;;;25.30;29.60;;;;;;5024100;28;21381;-62
2021/11/24 12:15:06;;;;;;;4.15;3.78;;;25.20;29.30;;;;;;5024198;28;20080;-63
2021/11/24 12:17:56;;;;;;;4.63;3.85;;;25.20;29.30;;;;;;5032447;28;20404;-63
2021/11/24 12:20:40;;;;;;;4.93;4.43;;;25.20;29.20;;;;;;5027972;28;20551;-63
2021/11/24 12:23:27;;;;;;;4.70;3.80;;;25.20;29.20;;;;;;5021188;28;20076;-64
2021/11/24 12:25:56;;;;;;;4.95;4.00;;;25.10;29.20;;;;;;5018145;28;20053;-62
2021/11/24 12:28:24;;;;;;;4.40;3.90;;;25.10;29.20;;;;;;5028927;28;20099;-63
2021/11/24 12:30:53;;;;;;;4.75;4.20;;;25.10;29.30;;;;;;5025022;28;20080;-63
2021/11/24 12:33:37;;;;;;;4.15;3.72;;;25.10;29.30;;;;;;5018610;28;20455;-64
2021/11/24 12:36:23;;;;;;;4.03;2.92;;;25.10;29.30;;;;;;5030157;28;20383;-64
2021/11/24 12:38:56;;;;;;;3.75;3.30;;;25.10;29.50;;;;;;5033293;28;20045;-65
2021/11/24 12:41:29;;;;;;;3.60;3.30;;;25.10;29.60;;;;;;5022237;28;20056;-65
2021/11/24 12:44:00;;;;;;;3.63;3.30;;;25.10;29.70;;;;;;5024842;28;20453;-63
2021/11/24 12:46:29;;;;;;;7.05;3.60;;;25.10;29.80;;;;;;5024012;28;20117;-63
2021/11/24 12:49:03;;;;;;;5.10;3.90;;;25.20;29.80;;;;;;5028893;28;20083;-63
2021/11/24 12:51:39;;;;;;;4.03;3.50;;;25.20;29.90;;;;;;5028709;28;20227;-70